Time;durP1;ratioP1;P1;durP2;ratioP2;P2;SDS_P1;SDS_P2;PMS_P1;PMS_P2;Temp;Humidity;BMP_temperature;BMP_pressure;BME280_temperature;BME280_humidity;BME280_pressure;Samples;Min_cycle;Max_cycle;Signal;HPM_P1;HPM_P2
2023/07/03 00:02:17;;;;;;;12.20;2.70;;;;;;;;;;4987858;28;95998;-80
2023/07/03 00:04:47;;;;;;;11.13;2.90;;;;;;;;;;4989354;28;92405;-81
2023/07/03 00:07:14;;;;;;;11.88;3.30;;;;;;;;;;4983150;28;93227;-81
2023/07/03 00:09:41;;;;;;;10.88;3.13;;;;;;;;;;4985031;28;93085;-81
2023/07/03 00:12:08;;;;;;;;;;;;;;;;;;4993195;28;92411;-81
2023/07/03 00:14:35;;;;;;;11.70;2.97;;;;;;;;;;4990474;28;92990;-81
2023/07/03 00:17:01;;;;;;;14.02;3.10;;;;;;;;;;4999623;27;92969;-81
2023/07/03 00:19:30;;;;;;;13.80;3.70;;;;;;;;;;4989441;28;91739;-79
2023/07/03 00:22:00;;;;;;;12.07;3.10;;;;;;;;;;4973159;28;92956;-79
2023/07/03 00:24:28;;;;;;;10.98;3.05;;;;;;;;;;4987051;28;92731;-80
2023/07/03 00:26:55;;;;;;;11.75;3.67;;;;;;;;;;4988217;28;96007;-80
2023/07/03 00:29:21;;;;;;;9.65;2.88;;;;;;;;;;4990490;28;94015;-80
2023/07/03 00:31:48;;;;;;;13.20;3.22;;;;;;;;;;4989370;28;92497;-79
2023/07/03 00:34:15;;;;;;;13.65;3.28;;;;;;;;;;4989848;28;94115;-79
2023/07/03 00:36:41;;;;;;;12.13;2.97;;;;;;;;;;4983931;28;92407;-80
2023/07/03 00:39:08;;;;;;;13.05;2.92;;;;;;;;;;4987591;28;96085;-81
2023/07/03 00:41:34;;;;;;;11.23;3.00;;;;;;;;;;4988496;27;93583;-79
2023/07/03 00:44:01;;;;;;;10.93;2.90;;;;;;;;;;4989312;28;92180;-80
2023/07/03 00:46:27;;;;;;;12.10;3.17;;;;;;;;;;4989069;28;93111;-80
2023/07/03 00:48:54;;;;;;;13.82;3.38;;;;;;;;;;4987931;28;92558;-81
2023/07/03 00:51:21;;;;;;;12.05;3.00;;;;;;;;;;4972652;28;95411;-80
2023/07/03 00:53:47;;;;;;;10.85;2.83;;;;;;;;;;4962615;28;102377;-79
2023/07/03 00:56:14;;;;;;;10.13;2.92;;;;;;;;;;4969555;28;92417;-80
2023/07/03 00:58:40;;;;;;;10.82;2.80;;;;;;;;;;4968966;28;94798;-79
2023/07/03 01:01:15;;;;;;;13.25;3.20;;;;;;;;;;4966972;28;94159;-80
2023/07/03 01:03:50;;;;;;;11.50;3.03;;;;;;;;;;4965980;28;92669;-81
2023/07/03 01:06:19;;;;;;;11.93;2.92;;;;;;;;;;4965685;28;92646;-79
2023/07/03 01:08:49;;;;;;;11.38;3.10;;;;;;;;;;4967547;28;95253;-80
2023/07/03 01:11:17;;;;;;;12.68;3.00;;;;;;;;;;5001731;28;92517;-81
2023/07/03 01:13:46;;;;;;;11.20;2.85;;;;;;;;;;4969604;28;94029;-81
2023/07/03 01:16:13;;;;;;;9.93;2.55;;;;;;;;;;4973534;28;95984;-81
2023/07/03 01:18:41;;;;;;;16.33;3.50;;;;;;;;;;4972148;28;95051;-82
2023/07/03 01:21:12;;;;;;;12.07;2.65;;;;;;;;;;4972264;28;92991;-79
2023/07/03 01:23:42;;;;;;;10.15;2.90;;;;;;;;;;4970908;28;92456;-80
2023/07/03 01:26:09;;;;;;;12.02;3.00;;;;;;;;;;4970039;28;95424;-81
2023/07/03 01:28:36;;;;;;;12.82;2.90;;;;;;;;;;4971647;28;92969;-79
2023/07/03 01:31:07;;;;;;;;;;;;;;;;;;4972424;28;92729;-79
2023/07/03 01:33:40;;;;;;;11.23;3.03;;;;;;;;;;4984330;28;93324;-79
2023/07/03 01:36:07;;;;;;;12.95;2.78;;;;;;;;;;4962804;28;95700;-80
2023/07/03 01:38:34;;;;;;;;;;;;;;;;;;4995066;28;92535;-78
2023/07/03 01:41:01;;;;;;;13.18;3.13;;;;;;;;;;4988932;28;112154;-79
2023/07/03 01:43:28;;;;;;;12.25;2.85;;;;;;;;;;4990890;28;92492;-79
2023/07/03 01:45:55;;;;;;;11.02;2.70;;;;;;;;;;4987400;28;92652;-79
2023/07/03 01:48:21;;;;;;;13.77;3.17;;;;;;;;;;4989219;28;95702;-78
2023/07/03 01:50:48;;;;;;;16.13;3.35;;;;;;;;;;4991318;27;92444;-79
2023/07/03 01:53:23;;;;;;;10.77;3.05;;;;;;;;;;4990872;27;93199;-79
2023/07/03 01:55:54;;;;;;;13.57;3.00;;;;;;;;;;4990583;27;97766;-79
2023/07/03 01:58:39;;;;;;;14.50;3.40;;;;;;;;;;4991350;27;91654;-80
2023/07/03 02:01:07;;;;;;;12.10;3.35;;;;;;;;;;4993348;27;92705;-79
2023/07/03 02:03:34;;;;;;;12.13;2.85;;;;;;;;;;4986435;28;93190;-80
2023/07/03 02:06:04;;;;;;;14.68;3.15;;;;;;;;;;4989280;27;94790;-81
2023/07/03 02:08:31;;;;;;;13.10;3.28;;;;;;;;;;4989219;28;93182;-80
2023/07/03 02:10:58;;;;;;;;;;;;;;;;;;4990025;28;93001;-80
2023/07/03 02:13:25;;;;;;;14.32;3.03;;;;;;;;;;4988213;27;95036;-80
2023/07/03 02:15:54;;;;;;;16.95;3.58;;;;;;;;;;4993946;28;95779;-81
2023/07/03 02:18:23;;;;;;;18.83;3.30;;;;;;;;;;4994896;28;92463;-82
2023/07/03 02:20:50;;;;;;;16.58;3.22;;;;;;;;;;4986410;28;95901;-80
2023/07/03 02:23:17;;;;;;;15.05;3.30;;;;;;;;;;4988757;28;94794;-81
2023/07/03 02:25:45;;;;;;;15.30;3.00;;;;;;;;;;4988744;28;94513;-79
2023/07/03 02:28:11;;;;;;;14.88;3.45;;;;;;;;;;4981807;28;94050;-80
2023/07/03 02:30:38;;;;;;;12.95;3.03;;;;;;;;;;4987864;28;95705;-80
2023/07/03 02:33:05;;;;;;;13.57;3.17;;;;;;;;;;4989596;28;98291;-80
2023/07/03 02:35:31;;;;;;;13.13;3.15;;;;;;;;;;4990658;27;94613;-80
2023/07/03 02:37:58;;;;;;;15.65;3.45;;;;;;;;;;4992040;28;92668;-81
2023/07/03 02:40:25;;;;;;;14.27;2.85;;;;;;;;;;4998108;28;93441;-81
2023/07/03 02:42:51;;;;;;;13.88;3.30;;;;;;;;;;4988670;28;95820;-81
2023/07/03 02:45:19;;;;;;;15.00;3.38;;;;;;;;;;4991945;28;92439;-81
2023/07/03 02:47:47;;;;;;;14.52;3.50;;;;;;;;;;4988814;28;98050;-80
2023/07/03 02:50:15;;;;;;;15.45;3.55;;;;;;;;;;4988701;28;92574;-80
2023/07/03 02:52:42;;;;;;;15.00;3.50;;;;;;;;;;4987911;28;94292;-80
2023/07/03 02:55:11;;;;;;;15.05;3.97;;;;;;;;;;4988113;27;95302;-80
2023/07/03 02:57:37;;;;;;;17.33;4.07;;;;;;;;;;4987684;28;92516;-80
2023/07/03 03:00:06;;;;;;;17.67;4.28;;;;;;;;;;4988035;28;94276;-80
2023/07/03 03:02:33;;;;;;;15.48;4.00;;;;;;;;;;4994183;28;95344;-80
2023/07/03 03:05:00;;;;;;;18.50;4.63;;;;;;;;;;4989086;28;92596;-79
2023/07/03 03:07:27;;;;;;;20.15;4.13;;;;;;;;;;4987000;27;95641;-80
2023/07/03 03:09:54;;;;;;;20.30;4.40;;;;;;;;;;4984023;28;92523;-80
2023/07/03 03:12:21;;;;;;;14.00;3.25;;;;;;;;;;4981954;28;94370;-79
2023/07/03 03:14:47;;;;;;;14.55;3.40;;;;;;;;;;4975280;28;92928;-79
2023/07/03 03:17:14;;;;;;;16.48;3.70;;;;;;;;;;4988205;28;92904;-79
2023/07/03 03:19:41;;;;;;;14.75;3.35;;;;;;;;;;4986258;28;95714;-79
2023/07/03 03:22:07;;;;;;;12.15;3.42;;;;;;;;;;4980291;28;92993;-79
2023/07/03 03:24:34;;;;;;;11.52;3.05;;;;;;;;;;4979267;27;92658;-80
2023/07/03 03:27:06;;;;;;;16.05;3.50;;;;;;;;;;4990797;28;94603;-80
2023/07/03 03:29:33;;;;;;;13.40;3.28;;;;;;;;;;4986916;27;92498;-79
2023/07/03 03:32:01;;;;;;;16.05;3.55;;;;;;;;;;4987535;28;95212;-79
2023/07/03 03:34:29;;;;;;;17.30;3.60;;;;;;;;;;4986568;28;95578;-79
2023/07/03 03:36:55;;;;;;;14.77;3.60;;;;;;;;;;4982692;28;92126;-79
2023/07/03 03:39:22;;;;;;;15.38;3.65;;;;;;;;;;4988725;28;93261;-77
2023/07/03 03:41:49;;;;;;;13.27;3.40;;;;;;;;;;4987118;28;95455;-80
2023/07/03 03:44:15;;;;;;;16.58;3.38;;;;;;;;;;4985563;28;94959;-79
2023/07/03 03:46:42;;;;;;;19.23;3.90;;;;;;;;;;4987547;28;98359;-80
2023/07/03 03:49:10;;;;;;;14.60;3.50;;;;;;;;;;4996797;28;95829;-80
2023/07/03 03:51:37;;;;;;;12.25;3.28;;;;;;;;;;4986185;27;96573;-79
2023/07/03 03:54:04;;;;;;;14.88;3.50;;;;;;;;;;4973366;28;96017;-79
2023/07/03 03:56:31;;;;;;;;;;;;;;;;;;4987596;28;92530;-79
2023/07/03 03:58:58;;;;;;;17.65;4.00;;;;;;;;;;4988578;28;93672;-80
2023/07/03 04:01:24;;;;;;;12.75;3.17;;;;;;;;;;4985997;28;95271;-79
2023/07/03 04:03:51;;;;;;;14.60;3.03;;;;;;;;;;4987609;28;92542;-79
2023/07/03 04:06:17;;;;;;;11.65;3.10;;;;;;;;;;4988525;27;93073;-79
2023/07/03 04:08:44;;;;;;;17.52;4.03;;;;;;;;;;4986396;27;96289;-79
2023/07/03 04:11:11;;;;;;;14.77;3.50;;;;;;;;;;4990741;28;92484;-81
2023/07/03 04:13:37;;;;;;;14.02;3.28;;;;;;;;;;4987754;27;93504;-79
2023/07/03 04:16:04;;;;;;;16.20;2.83;;;;;;;;;;4987082;28;92532;-79
2023/07/03 04:18:31;;;;;;;13.23;3.33;;;;;;;;;;4987763;27;94092;-81
2023/07/03 04:20:59;;;;;;;14.07;3.30;;;;;;;;;;4981233;28;96314;-80
2023/07/03 04:23:26;;;;;;;12.15;2.85;;;;;;;;;;4987740;28;92454;-78
2023/07/03 04:25:52;;;;;;;12.82;2.65;;;;;;;;;;4990344;27;93779;-78
2023/07/03 04:28:19;;;;;;;12.35;2.90;;;;;;;;;;4987732;28;94026;-79
2023/07/03 04:30:47;;;;;;;13.23;3.05;;;;;;;;;;4987868;28;92753;-79
2023/07/03 04:33:13;;;;;;;14.55;3.15;;;;;;;;;;4987924;28;96235;-79
2023/07/03 04:35:40;;;;;;;13.55;3.28;;;;;;;;;;4976313;28;92664;-79
2023/07/03 04:38:07;;;;;;;13.18;2.97;;;;;;;;;;4987811;27;92897;-79
2023/07/03 04:40:34;;;;;;;13.23;3.05;;;;;;;;;;4988044;28;93528;-78
2023/07/03 04:43:01;;;;;;;14.35;3.28;;;;;;;;;;4986401;28;92515;-79
2023/07/03 04:45:30;;;;;;;11.77;3.13;;;;;;;;;;4985931;27;95590;-79
2023/07/03 04:47:56;;;;;;;16.83;3.55;;;;;;;;;;4988795;28;94293;-80
2023/07/03 04:50:24;;;;;;;14.82;3.78;;;;;;;;;;4990032;28;91832;-81
2023/07/03 04:52:52;;;;;;;13.30;3.40;;;;;;;;;;4990604;27;92405;-79
2023/07/03 04:55:21;;;;;;;13.88;3.40;;;;;;;;;;4981297;28;93404;-80
2023/07/03 04:57:48;;;;;;;14.48;3.40;;;;;;;;;;4991649;28;97635;-80
2023/07/03 05:00:16;;;;;;;12.45;3.13;;;;;;;;;;4991338;28;94048;-80
2023/07/03 05:02:44;;;;;;;13.23;3.47;;;;;;;;;;4990300;27;92549;-80
2023/07/03 05:05:10;;;;;;;;;;;;;;;;;;4991571;27;93022;-80
2023/07/03 05:07:40;;;;;;;12.70;3.28;;;;;;;;;;4991315;28;93144;-80
2023/07/03 05:10:08;;;;;;;14.85;3.28;;;;;;;;;;4991844;27;97658;-80
2023/07/03 05:12:34;;;;;;;14.20;3.25;;;;;;;;;;4984702;28;92709;-79
2023/07/03 05:15:02;;;;;;;15.13;3.38;;;;;;;;;;4985065;28;92881;-79
2023/07/03 05:17:30;;;;;;;12.00;2.85;;;;;;;;;;4981401;27;92437;-79
2023/07/03 05:19:56;;;;;;;13.10;3.05;;;;;;;;;;4990223;27;93565;-79
2023/07/03 05:22:23;;;;;;;10.68;2.80;;;;;;;;;;4989606;27;95653;-79
2023/07/03 05:24:49;;;;;;;12.85;3.35;;;;;;;;;;4990496;27;95119;-79
2023/07/03 05:27:16;;;;;;;13.70;3.10;;;;;;;;;;4982596;28;92530;-79
2023/07/03 05:29:42;;;;;;;11.93;3.08;;;;;;;;;;4989543;28;92633;-79
2023/07/03 05:32:10;;;;;;;11.60;2.90;;;;;;;;;;4990659;28;93432;-80
2023/07/03 05:34:38;;;;;;;;;;;;;;;;;;4989149;28;93229;-80
2023/07/03 05:37:05;;;;;;;13.52;2.78;;;;;;;;;;4994743;27;106684;-79
2023/07/03 05:39:32;;;;;;;13.70;2.90;;;;;;;;;;4988366;27;98985;-79
2023/07/03 05:41:59;;;;;;;11.45;3.17;;;;;;;;;;4990088;27;92530;-78
2023/07/03 05:44:25;;;;;;;14.65;2.90;;;;;;;;;;4989935;28;92926;-79
2023/07/03 05:46:52;;;;;;;10.98;2.95;;;;;;;;;;4988230;28;96015;-79
2023/07/03 05:49:19;;;;;;;11.95;3.10;;;;;;;;;;4990393;28;93160;-79
2023/07/03 05:51:45;;;;;;;10.10;3.17;;;;;;;;;;4989180;27;93170;-78
2023/07/03 05:54:12;;;;;;;9.55;2.25;;;;;;;;;;4989742;27;93153;-78
2023/07/03 05:56:39;;;;;;;10.85;2.63;;;;;;;;;;4990562;28;92416;-78
2023/07/03 05:59:05;;;;;;;10.60;2.53;;;;;;;;;;4992371;28;93964;-79
2023/07/03 06:01:32;;;;;;;12.43;2.83;;;;;;;;;;4988632;27;92545;-78
2023/07/03 06:03:58;;;;;;;8.68;2.47;;;;;;;;;;4989457;27;92978;-79
2023/07/03 06:06:25;;;;;;;11.30;2.80;;;;;;;;;;4971678;28;95761;-79
2023/07/03 06:08:52;;;;;;;9.18;2.20;;;;;;;;;;4990018;27;92351;-79
2023/07/03 06:11:18;;;;;;;7.93;2.15;;;;;;;;;;4986888;28;95615;-79
2023/07/03 06:13:44;;;;;;;11.02;2.47;;;;;;;;;;4977159;27;93055;-79
2023/07/03 06:16:11;;;;;;;11.02;2.72;;;;;;;;;;4989929;27;92540;-79
2023/07/03 06:18:42;;;;;;;8.48;2.15;;;;;;;;;;4986067;28;92876;-79
2023/07/03 06:21:08;;;;;;;9.57;2.60;;;;;;;;;;4992043;27;93063;-79
2023/07/03 06:23:35;;;;;;;9.93;2.55;;;;;;;;;;4979175;27;92864;-80
2023/07/03 06:26:01;;;;;;;8.18;1.70;;;;;;;;;;4991179;27;92914;-81
2023/07/03 06:28:28;;;;;;;9.88;2.17;;;;;;;;;;4973987;28;92165;-79
2023/07/03 06:30:54;;;;;;;14.50;2.38;;;;;;;;;;4980119;28;94975;-80
2023/07/03 06:33:21;;;;;;;11.98;2.17;;;;;;;;;;4989947;27;93189;-79
2023/07/03 06:35:49;;;;;;;8.35;1.88;;;;;;;;;;4987959;27;94900;-80
2023/07/03 06:38:16;;;;;;;10.98;2.00;;;;;;;;;;4987640;28;95227;-79
2023/07/03 06:40:42;;;;;;;8.63;1.95;;;;;;;;;;4987537;27;92970;-80
2023/07/03 06:43:09;;;;;;;7.93;1.67;;;;;;;;;;4987409;28;92506;-80
2023/07/03 06:45:38;;;;;;;8.27;2.00;;;;;;;;;;4987231;28;94266;-80
2023/07/03 06:48:05;;;;;;;9.57;2.13;;;;;;;;;;4986953;28;93264;-80
2023/07/03 06:50:31;;;;;;;11.68;1.90;;;;;;;;;;4987582;28;92487;-80
2023/07/03 06:52:58;;;;;;;9.32;2.08;;;;;;;;;;4981255;28;94088;-80
2023/07/03 06:55:25;;;;;;;8.48;1.85;;;;;;;;;;4973644;28;92510;-80
2023/07/03 06:57:51;;;;;;;8.13;1.67;;;;;;;;;;4986678;27;93209;-80
2023/07/03 07:00:18;;;;;;;10.57;1.73;;;;;;;;;;4986973;27;95379;-78
2023/07/03 07:02:44;;;;;;;10.10;2.15;;;;;;;;;;4983676;28;92901;-79
2023/07/03 07:05:11;;;;;;;10.93;2.10;;;;;;;;;;4989929;27;92846;-80
2023/07/03 07:07:39;;;;;;;11.20;2.05;;;;;;;;;;4989077;28;92399;-80
2023/07/03 07:10:06;;;;;;;8.00;1.73;;;;;;;;;;4987098;28;92464;-79
2023/07/03 07:12:33;;;;;;;8.07;2.00;;;;;;;;;;4993259;27;93412;-79
2023/07/03 07:14:59;;;;;;;10.02;2.20;;;;;;;;;;4978286;28;92909;-79
2023/07/03 07:17:26;;;;;;;8.85;1.80;;;;;;;;;;4983020;28;95000;-79
2023/07/03 07:20:11;;;;;;;9.32;2.17;;;;;;;;;;4976277;28;94826;-79
2023/07/03 07:22:38;;;;;;;7.47;1.70;;;;;;;;;;4980569;28;92686;-79
2023/07/03 07:25:08;;;;;;;9.20;1.90;;;;;;;;;;4984088;28;95098;-79
2023/07/03 07:27:34;;;;;;;9.02;1.92;;;;;;;;;;4988204;27;92857;-79
2023/07/03 07:30:01;;;;;;;9.05;1.80;;;;;;;;;;4986946;28;92956;-79
2023/07/03 07:32:27;;;;;;;7.25;1.70;;;;;;;;;;4966365;28;95437;-79
2023/07/03 07:34:54;;;;;;;8.75;2.05;;;;;;;;;;4987996;28;93015;-78
2023/07/03 07:37:23;;;;;;;6.50;1.80;;;;;;;;;;4987787;28;92724;-78
2023/07/03 07:39:50;;;;;;;6.82;1.70;;;;;;;;;;4987567;27;93218;-79
2023/07/03 07:42:16;;;;;;;7.80;1.80;;;;;;;;;;4988154;28;92056;-79
2023/07/03 07:44:43;;;;;;;8.02;1.85;;;;;;;;;;4987455;28;93041;-79
2023/07/03 07:47:10;;;;;;;7.25;1.55;;;;;;;;;;4989264;28;93176;-81
2023/07/03 07:49:38;;;;;;;9.13;2.00;;;;;;;;;;4980089;28;95202;-81
2023/07/03 07:52:05;;;;;;;9.90;1.90;;;;;;;;;;4976454;28;93055;-79
2023/07/03 07:54:32;;;;;;;8.18;1.80;;;;;;;;;;4974647;28;93131;-80
2023/07/03 07:56:58;;;;;;;6.68;1.70;;;;;;;;;;4986872;28;93945;-79
2023/07/03 07:59:25;;;;;;;8.73;2.00;;;;;;;;;;4970849;28;92611;-78
2023/07/03 08:01:52;;;;;;;9.57;2.08;;;;;;;;;;4986322;28;92374;-79
2023/07/03 08:04:19;;;;;;;;;;;;;;;;;;4982036;28;92897;-78
2023/07/03 08:06:45;;;;;;;6.03;1.70;;;;;;;;;;4985157;28;113530;-78
2023/07/03 08:09:12;;;;;;;7.40;1.95;;;;;;;;;;4992225;28;92738;-78
2023/07/03 08:11:41;;;;;;;6.97;1.65;;;;;;;;;;4987530;28;94298;-78
2023/07/03 08:14:08;;;;;;;6.78;1.90;;;;;;;;;;4987476;28;95135;-78
2023/07/03 08:16:34;;;;;;;7.72;1.70;;;;;;;;;;4993655;28;95436;-78
2023/07/03 08:19:02;;;;;;;6.82;1.73;;;;;;;;;;4996866;28;92502;-78
2023/07/03 08:21:30;;;;;;;8.27;2.10;;;;;;;;;;4993093;28;92739;-77
2023/07/03 08:23:56;;;;;;;9.40;1.83;;;;;;;;;;4990000;28;94145;-80
2023/07/03 08:26:23;;;;;;;9.35;1.63;;;;;;;;;;4991962;28;93418;-77
2023/07/03 08:28:50;;;;;;;8.30;1.90;;;;;;;;;;4996651;28;93297;-78
2023/07/03 08:31:17;;;;;;;6.40;1.77;;;;;;;;;;4997148;28;92012;-78
2023/07/03 08:33:43;;;;;;;8.00;1.80;;;;;;;;;;4998133;27;94471;-79
2023/07/03 08:36:10;;;;;;;8.93;1.98;;;;;;;;;;4996963;27;92846;-80
2023/07/03 08:38:40;;;;;;;9.80;2.00;;;;;;;;;;5000752;28;96381;-80
2023/07/03 08:41:09;;;;;;;9.88;1.92;;;;;;;;;;4992796;28;92409;-79
2023/07/03 08:43:39;;;;;;;8.73;1.63;;;;;;;;;;5001915;27;92503;-79
2023/07/03 08:46:08;;;;;;;8.63;1.90;;;;;;;;;;4988785;28;92558;-80
2023/07/03 08:48:36;;;;;;;9.05;1.83;;;;;;;;;;4998082;28;92537;-80
2023/07/03 08:51:05;;;;;;;7.57;1.70;;;;;;;;;;4994565;28;94456;-80
2023/07/03 08:53:35;;;;;;;9.88;2.20;;;;;;;;;;4994706;27;93242;-81
2023/07/03 08:56:08;;;;;;;11.63;2.55;;;;;;;;;;4990067;28;97682;-78
2023/07/03 08:58:35;;;;;;;7.85;1.90;;;;;;;;;;4985081;28;92543;-79
2023/07/03 09:01:06;;;;;;;7.82;1.73;;;;;;;;;;4984166;28;93123;-79
2023/07/03 09:03:52;;;;;;;9.25;2.00;;;;;;;;;;4977615;27;95227;-78
2023/07/03 09:06:22;;;;;;;7.85;1.67;;;;;;;;;;4990290;27;93573;-78
2023/07/03 09:09:11;;;;;;;11.00;2.30;;;;;;;;;;4983709;28;92633;-78
2023/07/03 09:11:41;;;;;;;8.38;1.80;;;;;;;;;;4989305;27;92721;-78
2023/07/03 09:14:14;;;;;;;8.05;2.00;;;;;;;;;;4977348;28;94511;-79
2023/07/03 09:16:42;;;;;;;8.52;2.00;;;;;;;;;;4993139;27;92810;-78
2023/07/03 09:19:11;;;;;;;7.50;1.75;;;;;;;;;;4990745;27;94042;-78
2023/07/03 09:21:38;;;;;;;8.75;2.10;;;;;;;;;;4991414;27;91860;-78
2023/07/03 09:24:09;;;;;;;8.65;1.73;;;;;;;;;;4990732;28;92466;-78
2023/07/03 09:26:42;;;;;;;7.85;1.83;;;;;;;;;;4990628;27;93177;-79
2023/07/03 09:29:10;;;;;;;8.02;2.00;;;;;;;;;;4988660;28;95281;-78
2023/07/03 09:31:37;;;;;;;11.23;1.90;;;;;;;;;;4970466;28;96588;-76
2023/07/03 09:34:04;;;;;;;9.52;1.65;;;;;;;;;;4984850;28;93722;-77
2023/07/03 09:36:32;;;;;;;7.47;1.70;;;;;;;;;;4993781;27;92479;-76
2023/07/03 09:39:04;;;;;;;6.03;1.65;;;;;;;;;;4990256;28;94007;-78
2023/07/03 09:41:33;;;;;;;6.97;1.70;;;;;;;;;;4989694;27;92651;-78
2023/07/03 09:44:04;;;;;;;7.57;1.70;;;;;;;;;;4974164;28;95880;-78
2023/07/03 09:46:31;;;;;;;6.38;1.70;;;;;;;;;;4990711;28;92304;-78
2023/07/03 09:49:01;;;;;;;7.75;1.70;;;;;;;;;;4989810;28;92705;-78
2023/07/03 09:51:28;;;;;;;7.40;1.63;;;;;;;;;;4974965;27;92942;-78
2023/07/03 09:53:56;;;;;;;8.73;1.70;;;;;;;;;;4980823;28;95626;-77
2023/07/03 09:56:25;;;;;;;7.45;1.90;;;;;;;;;;4971632;28;92813;-78
2023/07/03 09:58:58;;;;;;;7.85;1.58;;;;;;;;;;4986335;28;93563;-79
2023/07/03 10:01:26;;;;;;;8.68;1.98;;;;;;;;;;4989744;27;92900;-78
2023/07/03 10:04:04;;;;;;;8.30;1.85;;;;;;;;;;4987175;28;95582;-79
2023/07/03 10:07:03;;;;;;;7.25;1.90;;;;;;;;;;4987477;28;94163;-79
2023/07/03 10:09:32;;;;;;;5.78;1.67;;;;;;;;;;4980353;27;92515;-79
2023/07/03 10:12:04;;;;;;;7.20;1.80;;;;;;;;;;4989627;28;94040;-79
2023/07/03 10:14:35;;;;;;;7.20;1.67;;;;;;;;;;4985183;28;93389;-79
2023/07/03 10:17:04;;;;;;;10.00;1.95;;;;;;;;;;4988425;28;92663;-80
2023/07/03 10:19:34;;;;;;;8.68;1.77;;;;;;;;;;4985939;28;94784;-81
2023/07/03 10:22:01;;;;;;;10.10;2.20;;;;;;;;;;4994195;28;93482;-79
2023/07/03 10:24:28;;;;;;;6.72;1.90;;;;;;;;;;4989398;28;94050;-80
2023/07/03 10:26:57;;;;;;;9.57;1.70;;;;;;;;;;4981332;28;93136;-80
2023/07/03 10:29:28;;;;;;;9.65;2.30;;;;;;;;;;4976139;28;93166;-79
2023/07/03 10:32:01;;;;;;;8.27;1.90;;;;;;;;;;4984424;28;92864;-79
2023/07/03 10:34:57;;;;;;;10.10;2.08;;;;;;;;;;4981150;27;93100;-80
2023/07/03 10:37:25;;;;;;;9.48;2.10;;;;;;;;;;4978059;28;92274;-80
2023/07/03 10:40:04;;;;;;;10.52;2.28;;;;;;;;;;4973134;28;92728;-80
2023/07/03 10:42:33;;;;;;;9.13;2.08;;;;;;;;;;4977466;28;93368;-79
2023/07/03 10:45:08;;;;;;;7.85;2.10;;;;;;;;;;4975162;28;94925;-78
2023/07/03 10:47:47;;;;;;;9.00;1.80;;;;;;;;;;4984483;28;92894;-79
2023/07/03 10:50:14;;;;;;;10.75;2.33;;;;;;;;;;4991056;28;92638;-80
2023/07/03 10:52:52;;;;;;;10.02;1.98;;;;;;;;;;4989799;28;92911;-80
2023/07/03 10:55:55;;;;;;;7.82;2.28;;;;;;;;;;4978414;28;94912;-80
2023/07/03 10:58:29;;;;;;;9.00;2.10;;;;;;;;;;5014998;28;92567;-80
2023/07/03 11:01:02;;;;;;;10.40;2.30;;;;;;;;;;4976164;28;92912;-81
2023/07/03 11:03:37;;;;;;;8.07;2.08;;;;;;;;;;4981257;28;93065;-81
2023/07/03 11:06:13;;;;;;;13.80;2.50;;;;;;;;;;4989298;27;92585;-82
2023/07/03 11:08:46;;;;;;;8.60;1.90;;;;;;;;;;4984221;28;92746;-83
2023/07/03 11:11:36;;;;;;;6.38;1.90;;;;;;;;;;4984673;28;94888;-82
2023/07/03 11:14:22;;;;;;;7.93;2.10;;;;;;;;;;4987376;28;99681;-83
2023/07/03 11:16:58;;;;;;;6.95;1.85;;;;;;;;;;4979489;28;93120;-83
2023/07/03 11:19:32;;;;;;;8.60;2.22;;;;;;;;;;4992016;27;92723;-81
2023/07/03 11:22:14;;;;;;;9.35;2.10;;;;;;;;;;4987310;28;94262;-82
2023/07/03 11:24:43;;;;;;;8.32;2.08;;;;;;;;;;4988662;27;93540;-83
2023/07/03 11:27:16;;;;;;;9.70;2.00;;;;;;;;;;4977723;28;92780;-83
2023/07/03 11:29:45;;;;;;;7.57;1.88;;;;;;;;;;4971269;28;92737;-81
2023/07/03 11:32:13;;;;;;;7.32;1.73;;;;;;;;;;4984131;28;92469;-81
2023/07/03 11:34:40;;;;;;;6.97;1.98;;;;;;;;;;4987441;27;92921;-82
2023/07/03 11:37:29;;;;;;;9.32;2.08;;;;;;;;;;4979723;27;96438;-82
2023/07/03 11:40:35;;;;;;;8.00;1.80;;;;;;;;;;4981085;28;93016;-82
2023/07/03 11:43:09;;;;;;;7.38;1.80;;;;;;;;;;4981776;27;92820;-83
2023/07/03 11:45:38;;;;;;;8.15;1.70;;;;;;;;;;4978914;27;93650;-81
2023/07/03 11:48:17;;;;;;;6.85;2.00;;;;;;;;;;4976506;28;94365;-82
2023/07/03 11:50:53;;;;;;;7.72;1.60;;;;;;;;;;4978958;28;92503;-82
2023/07/03 11:53:33;;;;;;;8.65;1.70;;;;;;;;;;4983698;28;93371;-82
2023/07/03 11:56:01;;;;;;;8.48;2.05;;;;;;;;;;4959838;28;98856;-82
2023/07/03 11:58:27;;;;;;;;;;;;;;;;;;4976567;28;99620;-82
2023/07/03 12:01:13;;;;;;;6.32;1.73;;;;;;;;;;4980815;27;93126;-82
2023/07/03 12:03:39;;;;;;;;;;;;;;;;;;4977160;28;95800;-81
2023/07/03 12:06:06;;;;;;;6.32;1.50;;;;;;;;;;4981271;28;101540;-81
2023/07/03 12:08:39;;;;;;;6.53;1.50;;;;;;;;;;4979679;28;93149;-81
2023/07/03 12:11:06;;;;;;;7.82;1.90;;;;;;;;;;4976727;28;93489;-81
2023/07/03 12:13:33;;;;;;;5.28;1.52;;;;;;;;;;4977969;28;94199;-81
2023/07/03 12:16:01;;;;;;;;;;;;;;;;;;4983196;28;92726;-81
2023/07/03 12:18:28;;;;;;;5.15;1.65;;;;;;;;;;4979201;28;96142;-82
2023/07/03 12:20:59;;;;;;;6.28;1.52;;;;;;;;;;4982708;28;92609;-81
2023/07/03 12:23:31;;;;;;;5.22;1.70;;;;;;;;;;4979984;28;93174;-80
2023/07/03 12:26:02;;;;;;;5.32;1.40;;;;;;;;;;4978803;28;94724;-81
2023/07/03 12:28:29;;;;;;;6.35;1.60;;;;;;;;;;4972795;28;95700;-82
2023/07/03 12:31:09;;;;;;;7.63;1.70;;;;;;;;;;4979383;28;96519;-82
2023/07/03 12:33:35;;;;;;;5.97;1.40;;;;;;;;;;4976992;28;93894;-82
2023/07/03 12:36:02;;;;;;;7.00;1.60;;;;;;;;;;4977420;28;92880;-82
2023/07/03 12:38:29;;;;;;;5.18;1.35;;;;;;;;;;4982353;28;94054;-82
2023/07/03 12:40:55;;;;;;;6.68;1.90;;;;;;;;;;4981190;28;93093;-82
2023/07/03 12:43:22;;;;;;;4.00;1.20;;;;;;;;;;4979199;28;93318;-83
2023/07/03 12:45:53;;;;;;;5.97;1.40;;;;;;;;;;4979180;28;96763;-81
2023/07/03 12:48:20;;;;;;;5.95;1.50;;;;;;;;;;4977398;28;93790;-83
2023/07/03 12:50:55;;;;;;;8.50;1.42;;;;;;;;;;4982178;28;94034;-82
2023/07/03 12:53:23;;;;;;;5.80;1.40;;;;;;;;;;4975440;28;95788;-80
2023/07/03 12:55:53;;;;;;;8.00;1.60;;;;;;;;;;4977909;27;92627;-80
2023/07/03 12:58:21;;;;;;;6.93;1.73;;;;;;;;;;4977038;28;94034;-82
2023/07/03 13:00:57;;;;;;;6.70;1.50;;;;;;;;;;4981589;28;94207;-83
2023/07/03 13:03:24;;;;;;;6.57;1.42;;;;;;;;;;4976823;28;93046;-82
2023/07/03 13:05:51;;;;;;;5.10;1.40;;;;;;;;;;4979307;28;93161;-83
2023/07/03 13:08:18;;;;;;;7.32;1.23;;;;;;;;;;4963697;28;93550;-85
2023/07/03 13:11:01;;;;;;;6.85;1.63;;;;;;;;;;4982967;28;96338;-83
2023/07/03 13:13:29;;;;;;;4.55;1.27;;;;;;;;;;4983914;28;94385;-83
2023/07/03 13:15:55;;;;;;;6.72;1.30;;;;;;;;;;4983821;28;93546;-83
2023/07/03 13:18:25;;;;;;;3.55;1.15;;;;;;;;;;4980174;28;96720;-84
2023/07/03 13:20:56;;;;;;;5.78;1.48;;;;;;;;;;4982157;28;93192;-82
2023/07/03 13:23:27;;;;;;;5.07;1.35;;;;;;;;;;4989978;28;92536;-84
2023/07/03 13:25:57;;;;;;;5.80;1.40;;;;;;;;;;4986016;28;93627;-85
2023/07/03 13:28:27;;;;;;;6.95;1.40;;;;;;;;;;4979500;28;94326;-83
2023/07/03 13:31:02;;;;;;;6.43;1.50;;;;;;;;;;4978710;28;93412;-83
2023/07/03 13:33:29;;;;;;;7.00;1.65;;;;;;;;;;4970715;28;93534;-83
2023/07/03 13:35:56;;;;;;;5.40;1.50;;;;;;;;;;4979555;28;91802;-81
2023/07/03 13:38:22;;;;;;;5.93;1.40;;;;;;;;;;4976419;28;93509;-82
2023/07/03 13:40:51;;;;;;;5.82;1.45;;;;;;;;;;4993543;28;93741;-83
2023/07/03 13:43:21;;;;;;;5.30;1.40;;;;;;;;;;4993405;28;94878;-83
2023/07/03 13:45:50;;;;;;;6.03;1.42;;;;;;;;;;4990739;28;100750;-84
2023/07/03 13:48:17;;;;;;;6.95;1.60;;;;;;;;;;4991382;28;92939;-83
2023/07/03 13:50:43;;;;;;;6.32;1.33;;;;;;;;;;4988354;28;95585;-84
2023/07/03 13:53:10;;;;;;;5.00;1.20;;;;;;;;;;4994794;28;94399;-84
2023/07/03 13:55:37;;;;;;;6.18;1.48;;;;;;;;;;4992463;27;92420;-84
2023/07/03 13:58:04;;;;;;;5.10;1.42;;;;;;;;;;4984457;28;93076;-85
2023/07/03 14:00:31;;;;;;;4.40;1.25;;;;;;;;;;4987661;28;92687;-83
2023/07/03 14:02:57;;;;;;;8.05;1.60;;;;;;;;;;4989305;28;93486;-84
2023/07/03 14:05:24;;;;;;;6.35;1.30;;;;;;;;;;4991876;28;92979;-83
2023/07/03 14:07:51;;;;;;;5.22;1.10;;;;;;;;;;4988884;28;94798;-84
2023/07/03 14:10:17;;;;;;;7.60;1.60;;;;;;;;;;5000132;28;95034;-84
2023/07/03 14:12:44;;;;;;;6.60;1.60;;;;;;;;;;4986791;28;93111;-82
2023/07/03 14:15:16;;;;;;;7.10;1.50;;;;;;;;;;4982478;28;92619;-84
2023/07/03 14:17:43;;;;;;;5.30;1.38;;;;;;;;;;4977350;28;93241;-84
2023/07/03 14:20:13;;;;;;;7.15;1.60;;;;;;;;;;4991021;28;93292;-84
2023/07/03 14:22:41;;;;;;;6.13;1.50;;;;;;;;;;4991511;28;92423;-83
2023/07/03 14:25:09;;;;;;;6.35;1.70;;;;;;;;;;5002989;27;92848;-83
2023/07/03 14:27:40;;;;;;;5.47;1.50;;;;;;;;;;4989572;28;93002;-84
2023/07/03 14:30:07;;;;;;;6.57;1.55;;;;;;;;;;4987235;28;93037;-84
2023/07/03 14:32:34;;;;;;;7.90;1.63;;;;;;;;;;4988488;28;95619;-85
2023/07/03 14:35:22;;;;;;;6.47;1.63;;;;;;;;;;4984635;28;93922;-83
2023/07/03 14:37:48;;;;;;;4.80;1.45;;;;;;;;;;4983152;28;96973;-82
2023/07/03 14:40:17;;;;;;;5.85;1.45;;;;;;;;;;4980069;27;94501;-83
2023/07/03 14:42:44;;;;;;;6.28;1.40;;;;;;;;;;4979263;28;93146;-83
2023/07/03 14:45:11;;;;;;;8.68;2.10;;;;;;;;;;4990343;28;92701;-83
2023/07/03 14:47:39;;;;;;;6.70;1.40;;;;;;;;;;4987784;27;94509;-82
2023/07/03 14:50:07;;;;;;;5.78;1.50;;;;;;;;;;4992392;27;92021;-82
2023/07/03 14:52:37;;;;;;;6.70;1.65;;;;;;;;;;4987161;28;95554;-81